Time;durP1;ratioP1;P1;durP2;ratioP2;P2;SDS_P1;SDS_P2;PMS_P1;PMS_P2;Temp;Humidity;BMP_temperature;BMP_pressure;BME280_temperature;BME280_humidity;BME280_pressure;Samples;Min_cycle;Max_cycle;Signal;HPM_P1;HPM_P2
2021/08/31 00:00:19;;;;;;;2.63;1.67;;;;;;;;;;5037087;28;20044;-68
2021/08/31 00:02:45;;;;;;;2.45;1.48;;;;;;;;;;5039413;28;20058;-68
2021/08/31 00:05:11;;;;;;;2.33;1.42;;;;;;;;;;5038488;28;20381;-68
2021/08/31 00:07:38;;;;;;;2.03;1.40;;;;;;;;;;5036394;28;20088;-68
2021/08/31 00:10:04;;;;;;;3.42;1.50;;;;;;;;;;5037118;28;20028;-68
2021/08/31 00:12:31;;;;;;;1.70;1.20;;;;;;;;;;5042542;28;20090;-68
2021/08/31 00:14:57;;;;;;;2.40;1.35;;;;;;;;;;5040461;28;20029;-68
2021/08/31 00:17:23;;;;;;;2.47;1.17;;;;;;;;;;5032151;28;20591;-68
2021/08/31 00:19:49;;;;;;;2.53;1.65;;;;;;;;;;5033654;28;20036;-68
2021/08/31 00:22:15;;;;;;;3.10;1.40;;;;;;;;;;5037153;28;20533;-68
2021/08/31 00:24:42;;;;;;;1.80;1.20;;;;;;;;;;5037905;28;20473;-68
2021/08/31 00:27:08;;;;;;;3.03;1.50;;;;;;;;;;5036783;28;20029;-68
2021/08/31 00:29:35;;;;;;;2.75;1.42;;;;;;;;;;5039797;28;20025;-68
2021/08/31 00:32:01;;;;;;;2.85;1.33;;;;;;;;;;5040213;28;20136;-68
2021/08/31 00:34:28;;;;;;;6.10;1.40;;;;;;;;;;5035511;28;20025;-68
2021/08/31 00:36:54;;;;;;;4.10;1.27;;;;;;;;;;5037859;28;20036;-68
2021/08/31 00:39:20;;;;;;;1.40;1.00;;;;;;;;;;5034003;28;20029;-68
2021/08/31 00:41:47;;;;;;;3.42;1.50;;;;;;;;;;5028769;28;20034;-68
2021/08/31 00:44:17;;;;;;;2.80;1.17;;;;;;;;;;5036288;28;20033;-68
2021/08/31 00:46:43;;;;;;;4.72;1.52;;;;;;;;;;5034806;28;20051;-68
2021/08/31 00:49:09;;;;;;;5.72;1.40;;;;;;;;;;5032606;28;20112;-68
2021/08/31 00:51:37;;;;;;;2.42;1.40;;;;;;;;;;5037190;28;20025;-68
2021/08/31 00:54:03;;;;;;;2.25;1.20;;;;;;;;;;5032342;28;20619;-68
2021/08/31 00:56:29;;;;;;;1.70;1.10;;;;;;;;;;5032206;28;20049;-68
2021/08/31 00:58:55;;;;;;;5.25;1.67;;;;;;;;;;5024016;28;20029;-68
2021/08/31 01:01:21;;;;;;;3.65;1.20;;;;;;;;;;5022547;28;20047;-68
2021/08/31 01:03:47;;;;;;;2.05;1.13;;;;;;;;;;5024606;28;20061;-68
2021/08/31 01:06:14;;;;;;;3.00;1.23;;;;;;;;;;5024203;28;20171;-68
2021/08/31 01:08:40;;;;;;;2.88;1.30;;;;;;;;;;5023565;28;20029;-68
2021/08/31 01:11:07;;;;;;;1.38;1.10;;;;;;;;;;5024919;28;20298;-68
2021/08/31 01:13:33;;;;;;;2.72;1.00;;;;;;;;;;5028141;28;20436;-68
2021/08/31 01:15:59;;;;;;;2.65;1.40;;;;;;;;;;5030411;28;20056;-68
2021/08/31 01:18:27;;;;;;;2.53;1.10;;;;;;;;;;5023682;28;20033;-68
2021/08/31 01:20:54;;;;;;;2.15;1.30;;;;;;;;;;5021979;28;20621;-68
2021/08/31 01:23:20;;;;;;;1.63;1.17;;;;;;;;;;5022981;28;20029;-67
2021/08/31 01:25:50;;;;;;;1.80;1.05;;;;;;;;;;5023556;28;20029;-68
2021/08/31 01:28:20;;;;;;;2.15;0.90;;;;;;;;;;5031246;28;20568;-68
2021/08/31 01:30:47;;;;;;;2.95;1.30;;;;;;;;;;5023572;28;20497;-68
2021/08/31 01:33:13;;;;;;;2.03;1.00;;;;;;;;;;5030374;28;20464;-68
2021/08/31 01:35:39;;;;;;;2.10;1.20;;;;;;;;;;5023364;28;20021;-68
2021/08/31 01:38:05;;;;;;;2.50;1.30;;;;;;;;;;5025370;28;20040;-68
2021/08/31 01:40:32;;;;;;;2.03;1.10;;;;;;;;;;5023536;28;20611;-68
2021/08/31 01:42:58;;;;;;;2.58;1.08;;;;;;;;;;5031130;28;20037;-68
2021/08/31 01:45:24;;;;;;;2.25;1.30;;;;;;;;;;5022398;28;20022;-68
2021/08/31 01:47:50;;;;;;;1.83;1.15;;;;;;;;;;5022792;28;20650;-68
2021/08/31 01:50:17;;;;;;;3.42;1.33;;;;;;;;;;5022937;28;20539;-68
2021/08/31 01:52:43;;;;;;;2.05;1.25;;;;;;;;;;5031019;28;20044;-68
2021/08/31 01:55:09;;;;;;;2.90;1.30;;;;;;;;;;5022699;28;20053;-68
2021/08/31 01:57:35;;;;;;;2.88;1.30;;;;;;;;;;5021663;28;20573;-68
2021/08/31 02:00:02;;;;;;;1.40;1.17;;;;;;;;;;5022748;28;20025;-68
2021/08/31 02:02:28;;;;;;;1.35;1.17;;;;;;;;;;5022509;28;20405;-68
2021/08/31 02:04:54;;;;;;;4.10;1.38;;;;;;;;;;5023954;28;20025;-68
2021/08/31 02:07:20;;;;;;;2.25;1.30;;;;;;;;;;5022972;28;20065;-68
2021/08/31 02:09:46;;;;;;;2.25;1.35;;;;;;;;;;5021702;28;20556;-68
2021/08/31 02:12:13;;;;;;;2.17;1.00;;;;;;;;;;5023142;28;20366;-68
2021/08/31 02:14:39;;;;;;;2.47;1.50;;;;;;;;;;5023381;28;20029;-68
2021/08/31 02:17:05;;;;;;;1.50;1.20;;;;;;;;;;5025462;28;20036;-68
2021/08/31 02:19:31;;;;;;;2.17;1.30;;;;;;;;;;5020890;28;20116;-68
2021/08/31 02:21:57;;;;;;;2.53;1.30;;;;;;;;;;5034388;28;20036;-68
2021/08/31 02:24:23;;;;;;;1.75;1.30;;;;;;;;;;5033491;28;20061;-68
2021/08/31 02:26:50;;;;;;;2.00;1.05;;;;;;;;;;5027901;28;20233;-68
2021/08/31 02:29:17;;;;;;;1.77;1.23;;;;;;;;;;5023582;28;20120;-68
2021/08/31 02:31:43;;;;;;;2.45;1.33;;;;;;;;;;5022829;28;20033;-68
2021/08/31 02:34:09;;;;;;;2.42;1.15;;;;;;;;;;5024679;28;20107;-68
2021/08/31 02:36:35;;;;;;;1.98;1.20;;;;;;;;;;5028522;28;20608;-69
2021/08/31 02:39:01;;;;;;;2.78;1.30;;;;;;;;;;5027548;28;20052;-68
2021/08/31 02:41:28;;;;;;;2.30;1.13;;;;;;;;;;5032628;28;20492;-68
2021/08/31 02:43:54;;;;;;;3.47;1.60;;;;;;;;;;5033568;28;20096;-68
2021/08/31 02:46:20;;;;;;;7.97;1.58;;;;;;;;;;5031223;28;20032;-68
2021/08/31 02:48:46;;;;;;;2.85;1.20;;;;;;;;;;5033870;28;20610;-68
2021/08/31 02:51:12;;;;;;;1.75;1.30;;;;;;;;;;5032189;28;20614;-68
2021/08/31 02:53:38;;;;;;;2.38;1.40;;;;;;;;;;5032028;28;20033;-68
2021/08/31 02:56:05;;;;;;;2.80;1.73;;;;;;;;;;5027333;28;20048;-68
2021/08/31 02:58:31;;;;;;;2.80;2.10;;;;;;;;;;5029766;28;20025;-68
2021/08/31 03:01:04;;;;;;;5.47;1.90;;;;;;;;;;5029613;28;20174;-68
2021/08/31 03:03:31;;;;;;;6.30;2.03;;;;;;;;;;5030117;28;20070;-68
2021/08/31 03:05:57;;;;;;;2.70;1.95;;;;;;;;;;5025062;28;20021;-68
2021/08/31 03:08:24;;;;;;;2.78;2.50;;;;;;;;;;5029341;28;21078;-68
2021/08/31 03:10:50;;;;;;;5.15;2.85;;;;;;;;;;5029585;28;20548;-69
2021/08/31 03:13:16;;;;;;;4.95;2.50;;;;;;;;;;5029835;28;20535;-68
2021/08/31 03:15:42;;;;;;;5.00;2.92;;;;;;;;;;5031726;28;20510;-68
2021/08/31 03:18:09;;;;;;;4.70;2.83;;;;;;;;;;5025780;28;20052;-68
2021/08/31 03:20:35;;;;;;;6.22;3.30;;;;;;;;;;5028089;28;20282;-68
2021/08/31 03:23:01;;;;;;;3.42;2.65;;;;;;;;;;5029734;28;20501;-68
2021/08/31 03:25:27;;;;;;;4.57;2.97;;;;;;;;;;5027807;28;20044;-68
2021/08/31 03:27:53;;;;;;;3.80;3.15;;;;;;;;;;5029755;28;20528;-69
2021/08/31 03:30:20;;;;;;;4.80;3.70;;;;;;;;;;5029612;28;20201;-68
2021/08/31 03:32:47;;;;;;;8.30;4.22;;;;;;;;;;5031453;28;20022;-68
2021/08/31 03:35:15;;;;;;;5.97;3.42;;;;;;;;;;5030526;28;20863;-68
2021/08/31 03:37:41;;;;;;;3.72;3.00;;;;;;;;;;5019803;28;20579;-68
2021/08/31 03:40:07;;;;;;;4.25;2.83;;;;;;;;;;5026753;28;20032;-68
2021/08/31 03:42:34;;;;;;;4.07;3.17;;;;;;;;;;5024620;28;20040;-68
2021/08/31 03:45:00;;;;;;;8.00;3.22;;;;;;;;;;5028918;28;20033;-68
2021/08/31 03:47:26;;;;;;;4.55;3.20;;;;;;;;;;5021599;28;20555;-68
2021/08/31 03:49:52;;;;;;;4.75;3.20;;;;;;;;;;5030164;28;20086;-68
2021/08/31 03:52:18;;;;;;;5.65;3.20;;;;;;;;;;5023357;28;20037;-68
2021/08/31 03:54:44;;;;;;;4.30;3.00;;;;;;;;;;5030941;28;20628;-68
2021/08/31 03:57:10;;;;;;;4.78;3.22;;;;;;;;;;5032749;28;20124;-68
2021/08/31 03:59:37;;;;;;;4.13;3.08;;;;;;;;;;5032756;28;20506;-68
2021/08/31 04:02:03;;;;;;;4.65;3.72;;;;;;;;;;5032964;28;20507;-68
2021/08/31 04:04:29;;;;;;;5.20;3.53;;;;;;;;;;5023798;28;20091;-68
2021/08/31 04:06:57;;;;;;;5.07;3.65;;;;;;;;;;5031828;28;20075;-68
2021/08/31 04:09:23;;;;;;;4.78;3.47;;;;;;;;;;5024104;28;20033;-68
2021/08/31 04:11:50;;;;;;;4.65;3.78;;;;;;;;;;5036230;28;20033;-68
2021/08/31 04:14:16;;;;;;;4.55;3.40;;;;;;;;;;5024366;28;20421;-68
2021/08/31 04:16:42;;;;;;;6.55;3.70;;;;;;;;;;5026778;28;20037;-68
2021/08/31 04:19:09;;;;;;;5.63;3.40;;;;;;;;;;5033019;28;20037;-69
2021/08/31 04:21:35;;;;;;;4.63;3.58;;;;;;;;;;5027968;28;20037;-68
2021/08/31 04:24:01;;;;;;;6.10;3.67;;;;;;;;;;5032639;28;20107;-68
2021/08/31 04:26:28;;;;;;;5.43;3.78;;;;;;;;;;5022543;28;20044;-68
2021/08/31 04:28:54;;;;;;;7.55;3.90;;;;;;;;;;5030361;28;20136;-68
2021/08/31 04:31:22;;;;;;;5.43;3.92;;;;;;;;;;5024007;28;20021;-68
2021/08/31 04:33:48;;;;;;;5.05;3.65;;;;;;;;;;5022876;28;20029;-68
2021/08/31 04:36:14;;;;;;;7.78;3.80;;;;;;;;;;5028461;28;20040;-68
2021/08/31 04:38:40;;;;;;;4.40;3.25;;;;;;;;;;5021738;28;20033;-68
2021/08/31 04:41:07;;;;;;;6.50;3.80;;;;;;;;;;5022141;28;20052;-68
2021/08/31 04:43:33;;;;;;;5.72;3.80;;;;;;;;;;5024982;28;20106;-68
2021/08/31 04:46:00;;;;;;;4.57;3.55;;;;;;;;;;5026593;28;20026;-68
2021/08/31 04:48:26;;;;;;;6.50;3.55;;;;;;;;;;5023570;28;20055;-68
2021/08/31 04:50:52;;;;;;;5.90;3.80;;;;;;;;;;5022091;28;20037;-68
2021/08/31 04:53:20;;;;;;;6.47;3.45;;;;;;;;;;5021729;28;20035;-69
2021/08/31 04:55:46;;;;;;;7.20;3.88;;;;;;;;;;5022245;28;20045;-68
2021/08/31 04:58:12;;;;;;;4.82;3.83;;;;;;;;;;5022165;28;20029;-68
2021/08/31 05:00:38;;;;;;;6.25;4.15;;;;;;;;;;5021971;28;20029;-68
2021/08/31 05:03:05;;;;;;;4.45;3.53;;;;;;;;;;5019590;28;20289;-68
2021/08/31 05:05:31;;;;;;;4.20;3.42;;;;;;;;;;5022052;28;20022;-68
2021/08/31 05:07:57;;;;;;;6.32;3.33;;;;;;;;;;5021908;28;20031;-68
2021/08/31 05:10:23;;;;;;;6.57;3.60;;;;;;;;;;5022069;28;20025;-68
2021/08/31 05:12:49;;;;;;;6.30;3.65;;;;;;;;;;5030231;28;20076;-68
2021/08/31 05:15:16;;;;;;;4.68;3.65;;;;;;;;;;5021653;28;20083;-68
2021/08/31 05:17:42;;;;;;;7.40;3.75;;;;;;;;;;5028785;28;20052;-68
2021/08/31 05:20:09;;;;;;;7.63;4.20;;;;;;;;;;5019454;28;20556;-68
2021/08/31 05:22:35;;;;;;;4.53;3.65;;;;;;;;;;5021892;28;20098;-68
2021/08/31 05:25:03;;;;;;;5.28;3.42;;;;;;;;;;5021667;28;20071;-68
2021/08/31 05:27:29;;;;;;;10.18;4.53;;;;;;;;;;5021361;28;20068;-68
2021/08/31 05:29:56;;;;;;;6.10;4.28;;;;;;;;;;5029954;28;20075;-67
2021/08/31 05:32:22;;;;;;;9.73;4.18;;;;;;;;;;5027415;28;20041;-67
2021/08/31 05:34:48;;;;;;;13.70;4.18;;;;;;;;;;5023473;28;20033;-67
2021/08/31 05:37:15;;;;;;;7.95;4.10;;;;;;;;;;5022233;28;20044;-67
2021/08/31 05:39:41;;;;;;;5.68;4.18;;;;;;;;;;5022725;28;20029;-67
2021/08/31 05:42:08;;;;;;;8.13;4.82;;;;;;;;;;5022972;28;20044;-67
2021/08/31 05:44:36;;;;;;;6.82;4.32;;;;;;;;;;5022945;28;20821;-68
2021/08/31 05:47:03;;;;;;;7.07;3.97;;;;;;;;;;5021603;28;20104;-67
2021/08/31 05:49:30;;;;;;;6.45;3.90;;;;;;;;;;5035922;28;20532;-67
2021/08/31 05:51:56;;;;;;;6.78;3.80;;;;;;;;;;5023506;28;20546;-67
2021/08/31 05:54:25;;;;;;;6.30;4.28;;;;;;;;;;5022744;28;20033;-67
2021/08/31 05:56:52;;;;;;;6.90;4.50;;;;;;;;;;5021779;28;20045;-68
2021/08/31 05:59:18;;;;;;;8.80;4.78;;;;;;;;;;5026282;28;20033;-68
2021/08/31 06:01:44;;;;;;;9.82;5.13;;;;;;;;;;5022935;28;20121;-67
2021/08/31 06:04:11;;;;;;;8.70;4.78;;;;;;;;;;5022970;28;20132;-67
2021/08/31 06:06:38;;;;;;;8.85;4.90;;;;;;;;;;5021722;28;20031;-67
2021/08/31 06:09:05;;;;;;;6.20;3.80;;;;;;;;;;5022804;28;20025;-67
2021/08/31 06:11:36;;;;;;;4.55;3.60;;;;;;;;;;5029860;28;20025;-68
2021/08/31 06:14:02;;;;;;;6.68;3.53;;;;;;;;;;5021831;28;20611;-67
2021/08/31 06:16:28;;;;;;;5.95;3.80;;;;;;;;;;5022294;28;20029;-67
2021/08/31 06:18:54;;;;;;;9.20;4.43;;;;;;;;;;5024184;28;20126;-68
2021/08/31 06:21:20;;;;;;;4.55;3.65;;;;;;;;;;5027248;28;20111;-68
2021/08/31 06:23:46;;;;;;;10.80;4.85;;;;;;;;;;5022869;28;20361;-69
2021/08/31 06:26:12;;;;;;;9.95;5.10;;;;;;;;;;5022453;28;20084;-67
2021/08/31 06:28:38;;;;;;;8.98;4.50;;;;;;;;;;5022425;28;20063;-68
2021/08/31 06:31:05;;;;;;;9.80;4.57;;;;;;;;;;5029917;28;20033;-67
2021/08/31 06:33:31;;;;;;;7.78;4.70;;;;;;;;;;5020727;28;20059;-67
2021/08/31 06:35:57;;;;;;;8.75;4.50;;;;;;;;;;5034879;28;20024;-67
2021/08/31 06:38:23;;;;;;;12.43;5.50;;;;;;;;;;5026863;28;20037;-67
2021/08/31 06:40:49;;;;;;;9.10;4.68;;;;;;;;;;5025378;28;20025;-66
2021/08/31 06:43:15;;;;;;;8.27;4.70;;;;;;;;;;5020913;28;20547;-67
2021/08/31 06:45:42;;;;;;;5.13;3.70;;;;;;;;;;5021959;28;20072;-67
2021/08/31 06:48:08;;;;;;;50.22;10.80;;;;;;;;;;5029849;28;20071;-67
2021/08/31 06:50:34;;;;;;;23.63;6.05;;;;;;;;;;5022293;28;20017;-67
2021/08/31 06:53:00;;;;;;;10.98;4.72;;;;;;;;;;5022128;28;20013;-67
2021/08/31 06:55:27;;;;;;;12.45;4.70;;;;;;;;;;5022381;28;20099;-67
2021/08/31 06:57:53;;;;;;;6.05;3.33;;;;;;;;;;5020717;28;20053;-66
2021/08/31 07:00:19;;;;;;;5.43;3.58;;;;;;;;;;5021455;28;20030;-67
2021/08/31 07:02:45;;;;;;;5.28;3.17;;;;;;;;;;5028755;28;20041;-66
2021/08/31 07:05:12;;;;;;;5.35;3.22;;;;;;;;;;5030938;28;20552;-68
2021/08/31 07:07:38;;;;;;;7.47;3.65;;;;;;;;;;5024939;28;20031;-67
2021/08/31 07:10:05;;;;;;;5.35;3.38;;;;;;;;;;5027492;28;20039;-68
2021/08/31 07:12:31;;;;;;;6.28;3.35;;;;;;;;;;5018767;28;20056;-67
2021/08/31 07:14:58;;;;;;;7.43;3.20;;;;;;;;;;5019806;28;20029;-67
2021/08/31 07:17:24;;;;;;;6.75;3.00;;;;;;;;;;5022518;28;20493;-67
2021/08/31 07:19:51;;;;;;;4.05;2.85;;;;;;;;;;5024960;28;20519;-67
2021/08/31 07:22:17;;;;;;;5.72;3.13;;;;;;;;;;5019562;28;20068;-67
2021/08/31 07:24:44;;;;;;;4.85;2.90;;;;;;;;;;5020113;28;20111;-68
2021/08/31 07:27:10;;;;;;;7.30;3.10;;;;;;;;;;5031632;28;20468;-67
2021/08/31 07:29:36;;;;;;;6.25;3.03;;;;;;;;;;5026998;28;20029;-67
2021/08/31 07:32:03;;;;;;;4.72;3.08;;;;;;;;;;5029011;28;20047;-68
2021/08/31 07:34:29;;;;;;;3.58;2.95;;;;;;;;;;5023716;28;20025;-67
2021/08/31 07:36:56;;;;;;;7.55;3.30;;;;;;;;;;5023758;28;20094;-67
2021/08/31 07:39:22;;;;;;;4.90;3.60;;;;;;;;;;5023086;28;20084;-68
2021/08/31 07:41:48;;;;;;;3.90;2.88;;;;;;;;;;5023944;28;20041;-67
2021/08/31 07:44:15;;;;;;;4.63;3.40;;;;;;;;;;5022887;28;20050;-67
2021/08/31 07:46:46;;;;;;;4.22;3.22;;;;;;;;;;5021926;28;20057;-67
2021/08/31 07:49:13;;;;;;;4.43;2.83;;;;;;;;;;5023628;28;20034;-67
2021/08/31 07:51:39;;;;;;;4.45;3.40;;;;;;;;;;5023604;28;20124;-67
2021/08/31 07:54:05;;;;;;;6.20;3.30;;;;;;;;;;5033657;28;20063;-67
2021/08/31 07:56:31;;;;;;;6.78;3.50;;;;;;;;;;5024713;28;20046;-67
2021/08/31 07:58:58;;;;;;;6.32;3.35;;;;;;;;;;5020002;28;20055;-68
2021/08/31 08:01:24;;;;;;;6.20;3.95;;;;;;;;;;5022824;28;20029;-67
2021/08/31 08:03:50;;;;;;;4.88;3.40;;;;;;;;;;5030888;28;20033;-67
2021/08/31 08:06:16;;;;;;;4.80;3.10;;;;;;;;;;5030469;28;20036;-67
2021/08/31 08:08:42;;;;;;;5.35;3.20;;;;;;;;;;5029618;28;20098;-68
2021/08/31 08:11:09;;;;;;;4.32;3.00;;;;;;;;;;5023015;28;20032;-67
2021/08/31 08:13:35;;;;;;;9.40;3.92;;;;;;;;;;5027298;28;20021;-67
2021/08/31 08:16:01;;;;;;;5.97;2.90;;;;;;;;;;5026167;28;20094;-67
2021/08/31 08:18:27;;;;;;;5.22;3.20;;;;;;;;;;5029332;28;20036;-67
2021/08/31 08:20:53;;;;;;;4.20;3.03;;;;;;;;;;5022306;28;20025;-67
2021/08/31 08:23:20;;;;;;;6.53;3.22;;;;;;;;;;5030144;28;20037;-67
2021/08/31 08:25:46;;;;;;;5.78;3.00;;;;;;;;;;5028363;28;20029;-68
2021/08/31 08:28:12;;;;;;;3.05;2.50;;;;;;;;;;5026719;28;20377;-68
2021/08/31 08:30:38;;;;;;;4.13;2.90;;;;;;;;;;5028752;28;20029;-67
2021/08/31 08:33:05;;;;;;;3.92;2.47;;;;;;;;;;5033265;28;20040;-68
2021/08/31 08:35:31;;;;;;;5.50;2.90;;;;;;;;;;5036337;28;20036;-67
2021/08/31 08:37:58;;;;;;;3.92;2.70;;;;;;;;;;5026564;28;20031;-67
2021/08/31 08:40:24;;;;;;;4.57;2.80;;;;;;;;;;5037996;28;20035;-68
2021/08/31 08:42:52;;;;;;;7.35;2.92;;;;;;;;;;5033288;28;20041;-68
2021/08/31 08:45:18;;;;;;;3.92;2.88;;;;;;;;;;5035630;28;20119;-68
2021/08/31 08:47:45;;;;;;;6.05;3.10;;;;;;;;;;5030352;28;20037;-67
2021/08/31 08:50:11;;;;;;;4.53;2.90;;;;;;;;;;5022199;28;20095;-68
2021/08/31 08:52:38;;;;;;;5.22;2.80;;;;;;;;;;5028696;28;20500;-67
2021/08/31 08:55:11;;;;;;;6.22;2.97;;;;;;;;;;5034684;28;20083;-68
2021/08/31 08:57:38;;;;;;;5.15;2.55;;;;;;;;;;5033936;28;20047;-68
2021/08/31 09:00:08;;;;;;;4.35;2.80;;;;;;;;;;5038184;28;20025;-68
2021/08/31 09:02:35;;;;;;;5.30;3.10;;;;;;;;;;5033767;28;20056;-68
2021/08/31 09:05:02;;;;;;;3.15;2.40;;;;;;;;;;5037381;28;20028;-67
2021/08/31 09:07:28;;;;;;;3.80;2.80;;;;;;;;;;5035319;28;20764;-68
2021/08/31 09:10:14;;;;;;;5.20;2.90;;;;;;;;;;5028913;28;20033;-67
2021/08/31 09:12:41;;;;;;;3.50;2.50;;;;;;;;;;5028961;28;20037;-68
2021/08/31 09:15:20;;;;;;;3.45;2.75;;;;;;;;;;5025715;28;20032;-68
2021/08/31 09:18:05;;;;;;;4.68;2.78;;;;;;;;;;5028235;28;20039;-68
2021/08/31 09:20:51;;;;;;;4.90;2.63;;;;;;;;;;5030656;28;20807;-69
2021/08/31 09:23:21;;;;;;;4.32;2.75;;;;;;;;;;5026235;28;20052;-69
2021/08/31 09:25:49;;;;;;;6.47;2.53;;;;;;;;;;5027235;28;20031;-69
2021/08/31 09:28:23;;;;;;;4.57;2.70;;;;;;;;;;5037250;28;20386;-69
2021/08/31 09:31:18;;;;;;;3.15;2.83;;;;;;;;;;5027762;28;20026;-69
2021/08/31 09:33:49;;;;;;;4.28;2.47;;;;;;;;;;5032361;28;20037;-69
2021/08/31 09:36:20;;;;;;;4.60;2.88;;;;;;;;;;5034003;28;20116;-68
2021/08/31 09:38:49;;;;;;;4.22;2.78;;;;;;;;;;5032628;28;20020;-68
2021/08/31 09:41:48;;;;;;;3.97;2.50;;;;;;;;;;5036629;28;20021;-68
2021/08/31 09:44:20;;;;;;;4.03;2.58;;;;;;;;;;5013139;28;20048;-69
2021/08/31 09:46:47;;;;;;;3.90;2.95;;;;;;;;;;5036387;28;20120;-69
2021/08/31 09:49:20;;;;;;;5.15;3.00;;;;;;;;;;5023971;28;20466;-69
2021/08/31 09:51:58;;;;;;;4.38;2.83;;;;;;;;;;5025175;28;20029;-69
2021/08/31 09:54:25;;;;;;;5.70;2.70;;;;;;;;;;5022595;28;20030;-69
2021/08/31 09:56:51;;;;;;;3.50;2.92;;;;;;;;;;5027017;28;20044;-69
2021/08/31 09:59:17;;;;;;;3.60;2.55;;;;;;;;;;5030749;28;20037;-69
2021/08/31 10:01:44;;;;;;;6.43;2.80;;;;;;;;;;5027750;28;20041;-69
2021/08/31 10:04:10;;;;;;;4.82;2.70;;;;;;;;;;5031452;28;20029;-69
2021/08/31 10:06:38;;;;;;;7.32;2.90;;;;;;;;;;5030770;28;20660;-69
2021/08/31 10:09:20;;;;;;;3.88;2.65;;;;;;;;;;5135330;27;20114;-70
2021/08/31 10:11:46;;;;;;;4.30;2.63;;;;;;;;;;5115147;27;20035;-70
2021/08/31 10:14:13;;;;;;;4.72;2.78;;;;;;;;;;5116505;27;20037;-70
2021/08/31 10:16:40;;;;;;;3.13;2.58;;;;;;;;;;5123906;27;20487;-70
2021/08/31 10:19:06;;;;;;;4.20;2.90;;;;;;;;;;5124175;27;20031;-70
2021/08/31 10:21:35;;;;;;;4.10;2.72;;;;;;;;;;5132834;27;20054;-70
2021/08/31 10:24:03;;;;;;;5.03;2.90;;;;;;;;;;5126823;27;20027;-70
2021/08/31 10:26:31;;;;;;;5.00;2.50;;;;;;;;;;5118483;27;20098;-70
2021/08/31 10:29:16;;;;;;;3.65;2.75;;;;;;;;;;5124412;27;20047;-70
2021/08/31 10:31:46;;;;;;;5.35;2.45;;;;;;;;;;5115726;27;20028;-70
2021/08/31 10:34:30;;;;;;;4.10;2.50;;;;;;;;;;5120445;27;20039;-70
2021/08/31 10:37:00;;;;;;;4.68;2.75;;;;;;;;;;5107582;27;20031;-70
2021/08/31 10:39:42;;;;;;;5.05;2.67;;;;;;;;;;5123518;27;20587;-70
2021/08/31 10:42:11;;;;;;;3.55;2.40;;;;;;;;;;5128079;27;20038;-71
2021/08/31 10:44:43;;;;;;;5.45;2.65;;;;;;;;;;5127101;27;20019;-70
2021/08/31 10:47:11;;;;;;;3.33;2.22;;;;;;;;;;5119427;27;20032;-70
2021/08/31 10:49:56;;;;;;;3.60;2.15;;;;;;;;;;5110860;27;20027;-69
2021/08/31 10:52:33;;;;;;;9.38;3.20;;;;;;;;;;5122264;27;20531;-69
2021/08/31 10:54:59;;;;;;;4.65;2.65;;;;;;;;;;5121692;27;20023;-70
2021/08/31 10:57:37;;;;;;;15.10;2.88;;;;;;;;;;5110833;27;20092;-70
2021/08/31 11:00:04;;;;;;;4.95;2.63;;;;;;;;;;5117031;27;20031;-69
2021/08/31 11:02:52;;;;;;;6.88;3.25;;;;;;;;;;5126996;27;20027;-69
2021/08/31 11:05:24;;;;;;;4.55;2.67;;;;;;;;;;5126788;27;20168;-69
2021/08/31 11:07:56;;;;;;;6.07;4.38;;;;;;;;;;5115776;27;20486;-69
2021/08/31 11:10:27;;;;;;;6.03;3.05;;;;;;;;;;5122714;27;20476;-70
2021/08/31 11:12:54;;;;;;;8.02;7.32;;;;;;;;;;5121282;27;20482;-70
2021/08/31 11:15:24;;;;;;;5.72;4.80;;;;;;;;;;5121883;27;20027;-70
2021/08/31 11:17:51;;;;;;;4.35;2.80;;;;;;;;;;5121369;27;20031;-70
2021/08/31 11:20:27;;;;;;;17.88;16.25;;;;;;;;;;5104363;27;20103;-71
2021/08/31 11:22:54;;;;;;;10.70;3.92;;;;;;;;;;5111850;27;20031;-69
2021/08/31 11:25:28;;;;;;;4.90;3.55;;;;;;;;;;5105600;27;20080;-69
2021/08/31 11:27:58;;;;;;;8.48;2.83;;;;;;;;;;5103586;27;20035;-70
2021/08/31 11:30:25;;;;;;;9.50;8.23;;;;;;;;;;5084882;28;20027;-69
2021/08/31 11:33:10;;;;;;;4.13;3.00;;;;;;;;;;5098428;27;20053;-69
2021/08/31 11:35:37;;;;;;;7.43;2.75;;;;;;;;;;5113141;27;20060;-69
2021/08/31 11:38:03;;;;;;;5.15;3.10;;;;;;;;;;5097261;27;20028;-70
2021/08/31 11:40:29;;;;;;;20.00;17.75;;;;;;;;;;5102516;27;20028;-70
2021/08/31 11:42:57;;;;;;;12.07;9.18;;;;;;;;;;5103598;27;20436;-69
2021/08/31 11:45:39;;;;;;;8.90;3.42;;;;;;;;;;5109208;27;20031;-69
2021/08/31 11:48:06;;;;;;;48.25;33.15;;;;;;;;;;5093433;27;20031;-70
2021/08/31 11:50:33;;;;;;;30.58;15.98;;;;;;;;;;5105340;27;20098;-69
2021/08/31 11:53:13;;;;;;;12.98;6.60;;;;;;;;;;5103732;27;20042;-70
2021/08/31 11:55:39;;;;;;;13.52;5.38;;;;;;;;;;5095811;27;20030;-70
2021/08/31 11:58:06;;;;;;;11.02;7.72;;;;;;;;;;5101579;27;20057;-70
2021/08/31 12:00:42;;;;;;;9.93;6.38;;;;;;;;;;5108318;27;20039;-69
2021/08/31 12:03:20;;;;;;;3.55;2.63;;;;;;;;;;5101757;27;20503;-69
2021/08/31 12:05:47;;;;;;;6.88;3.65;;;;;;;;;;5096595;27;20024;-69
2021/08/31 12:08:13;;;;;;;3.63;2.60;;;;;;;;;;5104008;27;20051;-69
2021/08/31 12:10:39;;;;;;;5.57;2.78;;;;;;;;;;5098474;27;20089;-69
2021/08/31 12:13:06;;;;;;;4.55;2.50;;;;;;;;;;5113894;27;20565;-70
2021/08/31 12:15:32;;;;;;;2.75;2.38;;;;;;;;;;5096312;27;20265;-70
2021/08/31 12:18:00;;;;;;;10.30;3.17;;;;;;;;;;5112191;27;20027;-70
2021/08/31 12:20:26;;;;;;;12.30;5.95;;;;;;;;;;5103121;27;20047;-69
2021/08/31 12:22:57;;;;;;;4.03;2.60;;;;;;;;;;5101634;27;20024;-70
2021/08/31 12:25:23;;;;;;;7.30;2.90;;;;;;;;;;5106759;27;20012;-69
2021/08/31 12:27:51;;;;;;;5.97;2.65;;;;;;;;;;5099360;27;20046;-70
2021/08/31 12:30:18;;;;;;;3.50;2.63;;;;;;;;;;5094509;27;20066;-69
2021/08/31 12:32:53;;;;;;;5.28;3.00;;;;;;;;;;5103150;27;20027;-69
2021/08/31 12:35:26;;;;;;;3.78;2.60;;;;;;;;;;5112063;27;20088;-68
2021/08/31 12:38:07;;;;;;;5.25;3.08;;;;;;;;;;5112596;27;20046;-68
2021/08/31 12:40:36;;;;;;;4.07;2.88;;;;;;;;;;5114513;27;20039;-68
2021/08/31 12:43:04;;;;;;;6.70;2.50;;;;;;;;;;5109257;27;20027;-68
2021/08/31 12:45:30;;;;;;;7.53;3.80;;;;;;;;;;5113130;27;20031;-68
2021/08/31 12:47:58;;;;;;;6.93;3.00;;;;;;;;;;5108709;27;20098;-69
2021/08/31 12:50:24;;;;;;;5.25;3.40;;;;;;;;;;5098772;27;20094;-68
2021/08/31 12:53:00;;;;;;;3.38;2.60;;;;;;;;;;5109952;27;20098;-69
2021/08/31 12:55:29;;;;;;;4.10;2.90;;;;;;;;;;5104662;27;20030;-68
2021/08/31 12:58:14;;;;;;;4.65;3.13;;;;;;;;;;5110310;27;20031;-69
2021/08/31 13:00:40;;;;;;;5.75;2.65;;;;;;;;;;5110604;27;20482;-69
2021/08/31 13:03:07;;;;;;;5.28;2.97;;;;;;;;;;5113324;27;20050;-69
2021/08/31 13:05:33;;;;;;;5.13;3.15;;;;;;;;;;5102950;27;20484;-70
2021/08/31 13:08:05;;;;;;;5.18;3.28;;;;;;;;;;5107797;27;20490;-68
2021/08/31 13:10:31;;;;;;;4.07;2.67;;;;;;;;;;5113805;27;20019;-69
2021/08/31 13:12:57;;;;;;;6.82;3.38;;;;;;;;;;5111092;27;20131;-69
2021/08/31 13:15:23;;;;;;;4.82;3.00;;;;;;;;;;5107168;27;20037;-69
2021/08/31 13:17:50;;;;;;;6.53;3.20;;;;;;;;;;5115858;27;20087;-69
2021/08/31 13:20:16;;;;;;;5.28;3.00;;;;;;;;;;5110032;27;20024;-69
2021/08/31 13:22:45;;;;;;;5.32;2.90;;;;;;;;;;5113023;27;20027;-69
2021/08/31 13:25:11;;;;;;;4.10;3.30;;;;;;;;;;5113013;27;20026;-69
2021/08/31 13:27:37;;;;;;;5.20;3.05;;;;;;;;;;5112315;27;20023;-69
2021/08/31 13:30:03;;;;;;;6.40;3.38;;;;;;;;;;5104226;27;20026;-69
2021/08/31 13:32:30;;;;;;;6.63;3.53;;;;;;;;;;5091616;28;20024;-69
2021/08/31 13:34:56;;;;;;;8.20;4.97;;;;;;;;;;5116144;27;20033;-69
2021/08/31 13:37:22;;;;;;;5.78;3.60;;;;;;;;;;5109769;27;20557;-71
2021/08/31 13:39:48;;;;;;;6.50;4.10;;;;;;;;;;5115491;27;20031;-72
2021/08/31 13:42:14;;;;;;;9.30;3.53;;;;;;;;;;5109300;27;20482;-71
2021/08/31 13:44:41;;;;;;;4.25;3.30;;;;;;;;;;5112453;27;20463;-71
2021/08/31 13:47:07;;;;;;;3.55;3.13;;;;;;;;;;5112286;27;20031;-71
2021/08/31 13:49:33;;;;;;;5.35;3.65;;;;;;;;;;5088320;28;20031;-70
2021/08/31 13:51:59;;;;;;;8.15;4.38;;;;;;;;;;5115698;27;20015;-70
2021/08/31 13:54:25;;;;;;;8.95;4.50;;;;;;;;;;5110263;27;20599;-70
2021/08/31 13:56:51;;;;;;;6.40;3.67;;;;;;;;;;5112974;27;20054;-71
2021/08/31 13:59:18;;;;;;;4.78;3.47;;;;;;;;;;5111088;27;20376;-70
2021/08/31 14:01:44;;;;;;;5.38;4.30;;;;;;;;;;5113540;27;20057;-70
2021/08/31 14:04:13;;;;;;;5.00;3.63;;;;;;;;;;5114569;27;20034;-70
2021/08/31 14:06:39;;;;;;;5.55;4.25;;;;;;;;;;5105145;28;20035;-70
2021/08/31 14:09:06;;;;;;;6.15;3.70;;;;;;;;;;5110165;28;20039;-71
2021/08/31 14:11:32;;;;;;;6.50;4.30;;;;;;;;;;5107822;28;20035;-71
2021/08/31 14:13:58;;;;;;;7.13;4.18;;;;;;;;;;5106380;28;20034;-71
2021/08/31 14:16:24;;;;;;;8.13;4.95;;;;;;;;;;5112890;28;20624;-69
2021/08/31 14:18:52;;;;;;;6.35;3.97;;;;;;;;;;5111666;28;20139;-69
2021/08/31 14:21:20;;;;;;;14.05;6.35;;;;;;;;;;5112396;28;20019;-71
2021/08/31 14:23:47;;;;;;;6.57;4.53;;;;;;;;;;5112656;28;20032;-70
2021/08/31 14:26:14;;;;;;;8.10;4.57;;;;;;;;;;5108493;28;20031;-70
2021/08/31 14:28:40;;;;;;;16.63;7.53;;;;;;;;;;5101143;28;20132;-70
2021/08/31 14:31:07;;;;;;;7.40;4.75;;;;;;;;;;5108600;28;20019;-69
2021/08/31 14:33:33;;;;;;;8.73;4.30;;;;;;;;;;5098502;28;20513;-70
2021/08/31 14:35:59;;;;;;;7.85;4.15;;;;;;;;;;5108042;28;20035;-70
2021/08/31 14:38:25;;;;;;;6.05;4.15;;;;;;;;;;5116905;28;20031;-70
2021/08/31 14:40:51;;;;;;;9.43;4.40;;;;;;;;;;5090340;28;20390;-70
2021/08/31 14:43:18;;;;;;;6.35;4.72;;;;;;;;;;5099338;28;20024;-70
2021/08/31 14:45:44;;;;;;;9.75;5.32;;;;;;;;;;5103209;28;20035;-70